Time;durP1;ratioP1;P1;durP2;ratioP2;P2;SDS_P1;SDS_P2;PMS_P1;PMS_P2;Temp;Humidity;BMP_temperature;BMP_pressure;BME280_temperature;BME280_humidity;BME280_pressure;Samples;Min_cycle;Max_cycle;Signal;HPM_P1;HPM_P2
2023/08/02 00:01:47;;;;;;;1.07;0.40;;;17.70;1.00;;;;;;5075183;28;20522;-62
2023/08/02 00:04:14;;;;;;;1.00;0.30;;;17.90;1.00;;;;;;5073127;28;20430;-61
2023/08/02 00:06:41;;;;;;;1.30;0.40;;;18.00;1.00;;;;;;5074362;28;20510;-62
2023/08/02 00:09:08;;;;;;;0.70;0.30;;;18.10;99.90;;;;;;5073486;28;20615;-61
2023/08/02 00:11:35;;;;;;;1.00;0.30;;;18.20;99.90;;;;;;5074534;28;20510;-61
2023/08/02 00:14:03;;;;;;;0.90;0.40;;;18.30;1.00;;;;;;5074516;28;20675;-60
2023/08/02 00:16:30;;;;;;;0.73;0.40;;;18.30;99.90;;;;;;5073699;28;20507;-62
2023/08/02 00:18:57;;;;;;;1.10;0.40;;;18.30;99.90;;;;;;5071509;28;20481;-61
2023/08/02 00:21:24;;;;;;;0.60;0.30;;;18.30;99.90;;;;;;5071903;28;20428;-62
2023/08/02 00:23:51;;;;;;;0.50;0.30;;;18.20;1.00;;;;;;5071974;28;20902;-60
2023/08/02 00:26:18;;;;;;;0.50;0.30;;;18.30;1.00;;;;;;5071037;28;20514;-60
2023/08/02 00:28:45;;;;;;;0.63;0.30;;;18.20;1.00;;;;;;5070015;28;21210;-63
2023/08/02 00:31:13;;;;;;;0.90;0.30;;;18.20;99.90;;;;;;5070516;28;20430;-61
2023/08/02 00:33:42;;;;;;;1.10;0.40;;;18.30;99.90;;;;;;5070484;28;20511;-61
2023/08/02 00:36:09;;;;;;;0.60;0.30;;;18.30;99.90;;;;;;5070092;28;20863;-61
2023/08/02 00:38:36;;;;;;;1.50;0.40;;;18.20;99.90;;;;;;5069867;28;20419;-61
2023/08/02 00:41:04;;;;;;;0.90;0.30;;;18.20;1.00;;;;;;5071211;28;20514;-61
2023/08/02 00:43:31;;;;;;;0.90;0.22;;;18.20;1.00;;;;;;5072711;28;20770;-60
2023/08/02 00:45:58;;;;;;;0.60;0.40;;;18.20;1.00;;;;;;5072668;28;20419;-61
2023/08/02 00:48:27;;;;;;;0.80;0.40;;;18.20;99.90;;;;;;5073306;28;20518;-62
2023/08/02 00:50:54;;;;;;;0.90;0.30;;;18.20;99.90;;;;;;5074485;28;20530;-62
2023/08/02 00:53:22;;;;;;;0.70;0.32;;;18.20;99.90;;;;;;5074401;28;20431;-61
2023/08/02 00:55:50;;;;;;;0.90;0.40;;;18.10;1.00;;;;;;5073371;28;20427;-61
2023/08/02 00:58:16;;;;;;;1.00;0.40;;;18.10;1.00;;;;;;5071676;28;20526;-60
2023/08/02 01:00:43;;;;;;;0.60;0.30;;;18.10;99.90;;;;;;5073769;28;20498;-61
2023/08/02 01:03:10;;;;;;;1.10;0.30;;;18.10;99.90;;;;;;5073022;28;20415;-61
2023/08/02 01:05:44;;;;;;;0.70;0.30;;;18.00;99.90;;;;;;5071285;28;20680;-61
2023/08/02 01:08:16;;;;;;;0.70;0.32;;;17.90;1.00;;;;;;5071189;28;20431;-62
2023/08/02 01:10:48;;;;;;;0.60;0.40;;;17.90;1.00;;;;;;5071731;28;20470;-62
2023/08/02 01:13:15;;;;;;;0.52;0.30;;;17.80;99.90;;;;;;5071746;28;20425;-61
2023/08/02 01:15:43;;;;;;;0.90;0.40;;;17.80;99.90;;;;;;5073887;28;20412;-61
2023/08/02 01:18:10;;;;;;;1.40;0.40;;;17.80;21.10;;;;;;5077063;28;20439;-61
2023/08/02 01:20:39;;;;;;;0.70;0.40;;;17.90;95.90;;;;;;5077997;28;20445;-62
2023/08/02 01:23:05;;;;;;;1.00;0.40;;;17.80;44.30;;;;;;5077498;28;20518;-60
2023/08/02 01:25:34;;;;;;;0.90;0.40;;;17.70;99.90;;;;;;5078658;28;20510;-60
2023/08/02 01:28:05;;;;;;;0.60;0.30;;;17.80;99.90;;;;;;5077848;28;20490;-62
2023/08/02 01:30:36;;;;;;;0.60;0.30;;;17.80;72.10;;;;;;5077440;28;20575;-61
2023/08/02 01:33:04;;;;;;;1.50;0.40;;;17.70;99.90;;;;;;5076876;28;20427;-60
2023/08/02 01:35:31;;;;;;;1.00;0.40;;;17.50;99.90;;;;;;5076992;28;20545;-60
2023/08/02 01:38:00;;;;;;;0.60;0.30;;;17.40;99.90;;;;;;5076927;28;20429;-61
2023/08/02 01:40:27;;;;;;;1.00;0.30;;;17.40;1.00;;;;;;5077587;28;20446;-61
2023/08/02 01:42:54;;;;;;;0.70;0.40;;;17.40;99.90;;;;;;5076654;28;20851;-61
2023/08/02 01:45:21;;;;;;;0.68;0.40;;;17.40;99.90;;;;;;5077048;28;20772;-62
2023/08/02 01:47:48;;;;;;;0.60;0.30;;;17.50;99.90;;;;;;5078047;28;20455;-61
2023/08/02 01:50:15;;;;;;;0.60;0.40;;;17.50;99.90;;;;;;5076219;28;20435;-61
2023/08/02 01:52:48;;;;;;;1.10;0.40;;;17.30;99.90;;;;;;5075666;28;20480;-61
2023/08/02 01:55:17;;;;;;;0.60;0.40;;;17.30;1.00;;;;;;5075247;28;20423;-60
2023/08/02 01:57:44;;;;;;;0.90;0.40;;;17.20;1.00;;;;;;5074190;28;20502;-61
2023/08/02 02:00:12;;;;;;;1.00;0.35;;;17.50;99.90;;;;;;5074220;28;20412;-61
2023/08/02 02:02:38;;;;;;;0.60;0.30;;;17.50;99.90;;;;;;5075578;28;20515;-61
2023/08/02 02:05:06;;;;;;;1.10;0.40;;;17.50;99.90;;;;;;5075955;28;20454;-63
2023/08/02 02:07:33;;;;;;;0.70;0.30;;;17.50;99.90;;;;;;5074729;28;20922;-61
2023/08/02 02:10:00;;;;;;;0.65;0.32;;;17.40;99.90;;;;;;5076537;28;20519;-62
2023/08/02 02:12:28;;;;;;;0.73;0.40;;;17.40;99.90;;;;;;5076037;28;20416;-61
2023/08/02 02:14:55;;;;;;;0.85;0.40;;;17.40;1.00;;;;;;5074725;28;20902;-61
2023/08/02 02:17:23;;;;;;;0.60;0.40;;;17.40;1.00;;;;;;5074608;28;20484;-62
2023/08/02 02:19:49;;;;;;;0.60;0.30;;;17.30;99.90;;;;;;5075010;28;20447;-61
2023/08/02 02:22:16;;;;;;;0.90;0.30;;;17.20;1.00;;;;;;5076649;28;20446;-61
2023/08/02 02:24:43;;;;;;;0.98;0.40;;;17.00;1.00;;;;;;5074181;28;20451;-61
2023/08/02 02:27:10;;;;;;;0.50;0.30;;;17.10;1.00;;;;;;5075326;28;20533;-61
2023/08/02 02:29:38;;;;;;;0.50;0.30;;;17.10;1.00;;;;;;5075901;28;20439;-62
2023/08/02 02:32:06;;;;;;;0.60;0.40;;;17.00;1.00;;;;;;5076645;28;20600;-60
2023/08/02 02:34:33;;;;;;;0.77;0.30;;;17.00;1.00;;;;;;5076367;28;20517;-61
2023/08/02 02:37:00;;;;;;;0.70;0.40;;;17.00;1.00;;;;;;5077038;28;20460;-63
2023/08/02 02:39:27;;;;;;;1.20;0.40;;;17.10;1.00;;;;;;5074644;28;20503;-61
2023/08/02 02:41:54;;;;;;;0.80;0.30;;;17.10;1.00;;;;;;5074497;28;20898;-61
2023/08/02 02:44:21;;;;;;;1.60;0.40;;;17.10;1.00;;;;;;5073612;28;20518;-61
2023/08/02 02:46:49;;;;;;;0.55;0.30;;;17.10;1.00;;;;;;5075582;28;20510;-62
2023/08/02 02:49:16;;;;;;;1.70;0.30;;;17.10;1.00;;;;;;5074699;28;20473;-60
2023/08/02 02:51:43;;;;;;;0.60;0.30;;;17.20;1.00;;;;;;5074372;28;20462;-61
2023/08/02 02:54:09;;;;;;;0.88;0.40;;;17.10;1.00;;;;;;5075163;28;20498;-62
2023/08/02 02:56:36;;;;;;;1.10;0.40;;;17.10;1.00;;;;;;5075548;28;20518;-61
2023/08/02 02:59:03;;;;;;;0.60;0.33;;;17.00;1.00;;;;;;5074706;28;20498;-62
2023/08/02 03:01:30;;;;;;;1.80;0.30;;;17.00;1.00;;;;;;5074213;28;20812;-62
2023/08/02 03:03:58;;;;;;;1.98;0.40;;;17.10;1.00;;;;;;5076240;28;20516;-61
2023/08/02 03:06:25;;;;;;;0.70;0.40;;;17.20;99.90;;;;;;5076162;28;20416;-61
2023/08/02 03:08:52;;;;;;;0.60;0.40;;;17.30;99.90;;;;;;5075291;28;20530;-61
2023/08/02 03:11:19;;;;;;;0.68;0.38;;;17.40;99.90;;;;;;5074947;28;20511;-61
2023/08/02 03:13:45;;;;;;;0.60;0.30;;;17.40;99.90;;;;;;5074089;28;20538;-61
2023/08/02 03:16:12;;;;;;;0.87;0.37;;;17.40;99.90;;;;;;5076074;28;20463;-63
2023/08/02 03:18:39;;;;;;;0.60;0.30;;;17.40;99.90;;;;;;5075805;28;20920;-62
2023/08/02 03:21:07;;;;;;;1.30;0.40;;;17.50;99.90;;;;;;5075265;28;20454;-62
2023/08/02 03:23:35;;;;;;;0.70;0.40;;;17.50;99.90;;;;;;5074163;28;20534;-62
2023/08/02 03:26:02;;;;;;;1.25;0.40;;;17.60;1.00;;;;;;5075481;28;20506;-62
2023/08/02 03:28:29;;;;;;;1.10;0.30;;;17.50;1.00;;;;;;5075086;28;20459;-62
2023/08/02 03:30:56;;;;;;;0.70;0.30;;;17.40;48.00;;;;;;5074364;28;20518;-62
2023/08/02 03:33:23;;;;;;;0.60;0.30;;;17.40;99.90;;;;;;5074054;28;20887;-61
2023/08/02 03:35:49;;;;;;;0.55;0.30;;;17.50;99.90;;;;;;5074093;28;20804;-62
2023/08/02 03:38:18;;;;;;;0.70;0.30;;;17.60;1.00;;;;;;5073764;28;20443;-60
2023/08/02 03:40:45;;;;;;;0.77;0.40;;;17.70;1.00;;;;;;5072718;28;20530;-61
2023/08/02 03:43:11;;;;;;;1.10;0.40;;;17.50;1.00;;;;;;5073313;28;20743;-63
2023/08/02 03:45:38;;;;;;;0.60;0.30;;;17.50;1.00;;;;;;5073062;28;20560;-61
2023/08/02 03:48:06;;;;;;;0.98;0.47;;;17.50;1.00;;;;;;5075342;28;20518;-60
2023/08/02 03:50:34;;;;;;;0.70;0.40;;;17.40;1.00;;;;;;5074726;28;20517;-61
2023/08/02 03:53:01;;;;;;;1.10;0.32;;;17.50;99.90;;;;;;5075310;28;20419;-62
2023/08/02 03:55:29;;;;;;;0.90;0.40;;;17.60;1.00;;;;;;5074671;28;20919;-62
2023/08/02 03:57:56;;;;;;;0.60;0.40;;;17.70;99.90;;;;;;5075396;28;20419;-61
2023/08/02 04:00:23;;;;;;;0.60;0.30;;;17.60;1.00;;;;;;5075219;28;20518;-61
2023/08/02 04:02:50;;;;;;;1.30;0.50;;;17.50;99.90;;;;;;5074827;28;20518;-62
2023/08/02 04:05:16;;;;;;;1.20;0.40;;;17.50;1.00;;;;;;5074226;28;20463;-61
2023/08/02 04:07:44;;;;;;;0.60;0.40;;;17.60;1.00;;;;;;5073122;28;20551;-62
2023/08/02 04:10:11;;;;;;;0.90;0.50;;;17.50;99.90;;;;;;5074624;28;20872;-62
2023/08/02 04:12:39;;;;;;;0.70;0.30;;;17.50;1.00;;;;;;5074298;28;20455;-62
2023/08/02 04:15:07;;;;;;;0.70;0.30;;;17.50;1.00;;;;;;5074339;28;20430;-62
2023/08/02 04:17:34;;;;;;;0.70;0.40;;;17.50;1.00;;;;;;5073383;28;20514;-61
2023/08/02 04:20:02;;;;;;;1.25;0.45;;;17.50;1.00;;;;;;5073411;28;20536;-62
2023/08/02 04:22:31;;;;;;;0.73;0.40;;;17.50;1.00;;;;;;5072961;28;20541;-60
2023/08/02 04:24:58;;;;;;;1.17;0.40;;;17.70;1.00;;;;;;5072483;28;20422;-61
2023/08/02 04:27:25;;;;;;;0.80;0.40;;;17.70;1.00;;;;;;5071614;28;20843;-62
2023/08/02 04:29:53;;;;;;;0.60;0.40;;;17.50;99.90;;;;;;5074081;28;20522;-60
2023/08/02 04:32:20;;;;;;;0.80;0.50;;;17.50;1.00;;;;;;5074080;28;20816;-61
2023/08/02 04:34:47;;;;;;;0.77;0.40;;;17.40;1.00;;;;;;5074556;28;20797;-62
2023/08/02 04:37:14;;;;;;;0.60;0.40;;;17.50;1.00;;;;;;5072718;28;20514;-59
2023/08/02 04:39:40;;;;;;;0.75;0.40;;;17.50;1.00;;;;;;5073726;28;20780;-61
2023/08/02 04:42:07;;;;;;;0.60;0.40;;;17.30;1.00;;;;;;5073392;28;20862;-59
2023/08/02 04:44:34;;;;;;;0.80;0.40;;;17.20;1.00;;;;;;5073714;28;20813;-60
2023/08/02 04:47:03;;;;;;;2.05;0.40;;;17.20;1.00;;;;;;5072624;28;20502;-57
2023/08/02 04:49:30;;;;;;;0.80;0.40;;;17.10;1.00;;;;;;5071669;28;20534;-61
2023/08/02 04:51:56;;;;;;;0.70;0.40;;;16.90;1.00;;;;;;5073690;28;20458;-58
2023/08/02 04:54:23;;;;;;;0.80;0.40;;;17.10;1.00;;;;;;5073968;28;20415;-58
2023/08/02 04:56:50;;;;;;;0.70;0.40;;;17.20;1.00;;;;;;5073456;28;20427;-57
2023/08/02 04:59:17;;;;;;;0.90;0.40;;;17.10;1.00;;;;;;5061158;28;20460;-58
2023/08/02 05:01:44;;;;;;;0.90;0.50;;;17.00;1.00;;;;;;5070380;28;20455;-55
2023/08/02 05:04:13;;;;;;;1.80;0.40;;;16.70;1.00;;;;;;5073601;28;20910;-57
2023/08/02 05:06:40;;;;;;;0.90;0.50;;;16.40;22.90;;;;;;5073080;28;20431;-57
2023/08/02 05:09:06;;;;;;;0.80;0.40;;;16.40;94.40;;;;;;5069419;28;20431;-57
2023/08/02 05:11:33;;;;;;;1.00;0.40;;;16.50;99.10;;;;;;5071065;28;20531;-56
2023/08/02 05:14:00;;;;;;;0.80;0.40;;;16.30;86.00;;;;;;5069602;28;20438;-57
2023/08/02 05:16:27;;;;;;;1.00;0.50;;;16.60;99.90;;;;;;5071115;28;20813;-54
2023/08/02 05:18:55;;;;;;;1.50;0.40;;;16.40;50.10;;;;;;5069750;28;20511;-59
2023/08/02 05:21:24;;;;;;;2.92;0.50;;;16.40;99.90;;;;;;5069879;28;20451;-57
2023/08/02 05:23:51;;;;;;;1.60;0.50;;;16.20;99.90;;;;;;5071054;28;20415;-56
2023/08/02 05:26:17;;;;;;;1.00;0.50;;;16.10;99.90;;;;;;5070394;28;20526;-56
2023/08/02 05:28:44;;;;;;;0.73;0.40;;;16.10;99.90;;;;;;5070771;28;21043;-54
2023/08/02 05:31:12;;;;;;;0.90;0.40;;;16.00;99.90;;;;;;5066817;28;20438;-54
2023/08/02 05:33:39;;;;;;;0.90;0.70;;;16.10;99.90;;;;;;5070962;28;20522;-53
2023/08/02 05:36:06;;;;;;;1.40;0.50;;;16.10;99.90;;;;;;5072872;28;20531;-55
2023/08/02 05:38:35;;;;;;;1.00;0.50;;;16.00;99.90;;;;;;5070676;28;20832;-55
2023/08/02 05:41:03;;;;;;;1.08;0.50;;;16.00;99.90;;;;;;5068832;28;20728;-55
2023/08/02 05:43:30;;;;;;;0.80;0.45;;;15.90;99.90;;;;;;5069228;28;20522;-50
2023/08/02 05:45:57;;;;;;;1.05;0.50;;;15.80;99.90;;;;;;5069243;28;20807;-55
2023/08/02 05:48:24;;;;;;;1.20;0.50;;;15.80;99.90;;;;;;5071196;28;20918;-54
2023/08/02 05:50:51;;;;;;;1.80;0.50;;;15.70;99.90;;;;;;5069799;28;20534;-54
2023/08/02 05:53:18;;;;;;;0.90;0.50;;;15.70;99.90;;;;;;5070071;28;20525;-55
2023/08/02 05:55:46;;;;;;;1.30;0.50;;;15.80;99.90;;;;;;5068484;28;20534;-52
2023/08/02 05:58:13;;;;;;;1.00;0.60;;;15.80;99.90;;;;;;5069667;28;20548;-57
2023/08/02 06:00:40;;;;;;;1.20;0.50;;;15.90;99.90;;;;;;5067881;28;20498;-55
2023/08/02 06:03:07;;;;;;;1.08;0.50;;;15.90;99.90;;;;;;5069797;28;20531;-55
2023/08/02 06:05:34;;;;;;;1.20;0.60;;;15.80;99.90;;;;;;5071942;28;20440;-56
2023/08/02 06:08:01;;;;;;;0.90;0.50;;;15.90;99.90;;;;;;5068650;28;20512;-54
2023/08/02 06:10:27;;;;;;;1.00;0.50;;;15.80;99.90;;;;;;5071272;28;20523;-54
2023/08/02 06:12:56;;;;;;;1.30;0.63;;;15.80;99.90;;;;;;5069707;28;20614;-52
2023/08/02 06:15:23;;;;;;;1.48;0.50;;;15.70;99.90;;;;;;5058015;28;20538;-54
2023/08/02 06:17:50;;;;;;;1.40;0.60;;;15.70;99.90;;;;;;5066813;28;20844;-54
2023/08/02 06:20:17;;;;;;;0.80;0.60;;;15.80;99.90;;;;;;5056492;28;20430;-56
2023/08/02 06:22:45;;;;;;;0.90;0.60;;;15.90;99.90;;;;;;5061714;28;20435;-55
2023/08/02 06:25:12;;;;;;;1.30;0.60;;;15.80;99.90;;;;;;5074099;28;20882;-55
2023/08/02 06:27:39;;;;;;;0.95;0.60;;;15.80;99.90;;;;;;5073638;28;20409;-51
2023/08/02 06:30:08;;;;;;;2.10;0.60;;;15.80;99.90;;;;;;5073884;28;21048;-54
2023/08/02 06:32:35;;;;;;;0.80;0.52;;;16.00;99.90;;;;;;5071051;28;20895;-53
2023/08/02 06:35:02;;;;;;;1.90;0.57;;;15.90;99.90;;;;;;5067268;28;20423;-55
2023/08/02 06:37:29;;;;;;;2.10;0.53;;;16.00;99.90;;;;;;5059822;28;20433;-53
2023/08/02 06:39:56;;;;;;;1.50;0.60;;;16.10;99.90;;;;;;5053481;28;20463;-53
2023/08/02 06:42:23;;;;;;;1.08;0.60;;;16.00;99.90;;;;;;5052803;28;20486;-57
2023/08/02 06:44:49;;;;;;;1.13;0.60;;;16.10;99.90;;;;;;5051198;28;20452;-55
2023/08/02 06:47:18;;;;;;;1.48;0.50;;;16.20;99.90;;;;;;5065984;28;20807;-58
2023/08/02 06:49:44;;;;;;;1.10;0.60;;;16.20;99.90;;;;;;5068842;28;20506;-56
2023/08/02 06:52:11;;;;;;;1.27;0.60;;;16.30;99.90;;;;;;5069463;28;20520;-60
2023/08/02 06:54:38;;;;;;;1.40;0.60;;;16.40;99.90;;;;;;5070481;28;20463;-59
2023/08/02 06:57:05;;;;;;;1.20;0.60;;;16.50;99.90;;;;;;5052755;28;20568;-59
2023/08/02 06:59:32;;;;;;;1.00;0.60;;;16.60;99.90;;;;;;5051717;28;20524;-58
2023/08/02 07:01:59;;;;;;;1.17;0.70;;;16.50;99.90;;;;;;5067259;28;20435;-60
2023/08/02 07:04:30;;;;;;;1.10;0.70;;;16.60;99.90;;;;;;5073001;28;20504;-58
2023/08/02 07:06:57;;;;;;;1.90;0.60;;;16.60;99.90;;;;;;5071717;28;20454;-58
2023/08/02 07:09:24;;;;;;;1.42;0.60;;;16.80;99.90;;;;;;5071709;28;20542;-58
2023/08/02 07:11:51;;;;;;;1.40;0.60;;;16.80;99.90;;;;;;5069753;28;20471;-58
2023/08/02 07:14:18;;;;;;;2.00;0.60;;;16.70;99.90;;;;;;5066122;28;20516;-60
2023/08/02 07:16:45;;;;;;;1.27;0.50;;;16.80;99.90;;;;;;5056523;28;20422;-60
2023/08/02 07:19:12;;;;;;;1.30;0.63;;;16.90;99.90;;;;;;5051677;28;20903;-60
2023/08/02 07:21:41;;;;;;;1.80;0.70;;;16.90;99.90;;;;;;5062821;28;20496;-59
2023/08/02 07:24:08;;;;;;;1.60;0.60;;;17.00;99.90;;;;;;5066706;28;20814;-60
2023/08/02 07:26:35;;;;;;;1.50;0.60;;;17.10;99.90;;;;;;5062020;28;20804;-58
2023/08/02 07:29:01;;;;;;;1.10;0.70;;;17.30;99.90;;;;;;5061131;28;20515;-59
2023/08/02 07:31:28;;;;;;;1.20;0.60;;;17.40;99.90;;;;;;5052279;28;20488;-59
2023/08/02 07:33:55;;;;;;;1.10;0.70;;;17.50;99.90;;;;;;5049259;28;20492;-59
2023/08/02 07:36:22;;;;;;;1.20;0.60;;;17.40;99.90;;;;;;5051150;28;20417;-59
2023/08/02 07:38:50;;;;;;;1.40;0.60;;;17.40;99.90;;;;;;5051233;28;20900;-59
2023/08/02 07:41:17;;;;;;;0.90;0.60;;;17.50;99.90;;;;;;5064887;28;20447;-58
2023/08/02 07:43:44;;;;;;;1.60;0.80;;;17.40;99.90;;;;;;5071952;28;20926;-58
2023/08/02 07:46:18;;;;;;;0.90;0.60;;;17.50;99.90;;;;;;5071274;28;20430;-58
2023/08/02 07:48:45;;;;;;;1.10;0.60;;;17.60;99.90;;;;;;5070929;28;20415;-56
2023/08/02 07:51:11;;;;;;;1.27;0.60;;;17.70;99.90;;;;;;5070531;28;20514;-57
2023/08/02 07:53:38;;;;;;;1.70;0.60;;;17.80;99.90;;;;;;5071010;28;20431;-56
2023/08/02 07:56:09;;;;;;;0.90;0.50;;;17.70;99.90;;;;;;5072079;28;20591;-57
2023/08/02 07:58:37;;;;;;;1.10;0.60;;;17.80;99.90;;;;;;5071448;28;20436;-57
2023/08/02 08:01:08;;;;;;;1.80;0.50;;;17.80;99.90;;;;;;5070325;28;20522;-57
2023/08/02 08:03:35;;;;;;;1.00;0.57;;;17.60;99.90;;;;;;5070455;28;20507;-56
2023/08/02 08:06:09;;;;;;;1.70;0.60;;;17.60;99.90;;;;;;5069991;28;20863;-57
2023/08/02 08:08:36;;;;;;;1.10;0.50;;;17.60;99.90;;;;;;5070593;28;20457;-58
2023/08/02 08:11:03;;;;;;;0.85;0.50;;;17.50;99.90;;;;;;5071009;28;20443;-57
2023/08/02 08:13:31;;;;;;;1.67;0.70;;;17.50;99.90;;;;;;5070490;28;20424;-58
2023/08/02 08:15:59;;;;;;;1.23;0.50;;;17.50;99.90;;;;;;5069166;28;20503;-58
2023/08/02 08:18:30;;;;;;;1.85;0.60;;;17.60;99.90;;;;;;5069655;28;20419;-58
2023/08/02 08:20:56;;;;;;;1.00;0.50;;;17.60;99.90;;;;;;5071220;28;20420;-58
2023/08/02 08:23:23;;;;;;;0.90;0.50;;;17.70;99.90;;;;;;5069489;28;20739;-58
2023/08/02 08:25:50;;;;;;;3.23;1.40;;;17.80;99.90;;;;;;5059995;28;20830;-57
2023/08/02 08:28:17;;;;;;;2.60;0.50;;;17.80;99.90;;;;;;5072013;28;20510;-58
2023/08/02 08:30:45;;;;;;;1.10;0.60;;;17.80;99.90;;;;;;5070594;28;20526;-59
2023/08/02 08:33:12;;;;;;;0.93;0.60;;;17.80;99.90;;;;;;5067406;28;20514;-58
2023/08/02 08:35:39;;;;;;;1.00;0.60;;;17.80;99.90;;;;;;5069427;28;20510;-58
2023/08/02 08:38:06;;;;;;;0.80;0.43;;;17.90;99.90;;;;;;5071516;28;20801;-56
2023/08/02 08:40:33;;;;;;;1.90;0.70;;;17.90;99.90;;;;;;5072571;28;20898;-58
2023/08/02 08:43:01;;;;;;;0.98;0.50;;;18.00;99.90;;;;;;5071445;28;20836;-58
2023/08/02 08:45:28;;;;;;;1.40;0.60;;;18.10;99.90;;;;;;5051655;28;20713;-58
2023/08/02 08:47:57;;;;;;;1.48;0.50;;;18.10;99.90;;;;;;5052222;28;20504;-56
2023/08/02 08:50:24;;;;;;;1.02;0.60;;;18.20;99.90;;;;;;5071953;28;20423;-58
2023/08/02 08:52:51;;;;;;;0.90;0.50;;;18.20;99.90;;;;;;5070805;28;20522;-56
2023/08/02 08:55:19;;;;;;;0.70;0.40;;;18.40;99.90;;;;;;5071677;28;20422;-57
2023/08/02 08:57:49;;;;;;;0.95;0.50;;;18.30;99.90;;;;;;5072154;28;20426;-56
2023/08/02 09:00:17;;;;;;;1.30;0.60;;;18.20;99.90;;;;;;5070541;28;20477;-56
2023/08/02 09:02:47;;;;;;;1.00;0.50;;;18.30;99.90;;;;;;5070239;28;20424;-58
2023/08/02 09:05:16;;;;;;;1.00;0.60;;;18.20;99.90;;;;;;5069316;28;20736;-56
2023/08/02 09:07:43;;;;;;;1.10;0.60;;;18.20;99.90;;;;;;5068036;28;20462;-57
2023/08/02 09:10:10;;;;;;;0.90;0.50;;;18.20;99.90;;;;;;5068236;28;20507;-58
2023/08/02 09:12:44;;;;;;;1.40;0.50;;;18.40;99.90;;;;;;5068172;28;20466;-59
2023/08/02 09:15:13;;;;;;;0.90;0.50;;;18.30;99.90;;;;;;5056648;28;20717;-59
2023/08/02 09:17:48;;;;;;;0.80;0.40;;;18.40;99.90;;;;;;5046930;28;20920;-59
2023/08/02 09:20:18;;;;;;;0.70;0.50;;;18.30;99.90;;;;;;5047558;28;20524;-58
2023/08/02 09:22:45;;;;;;;0.90;0.50;;;18.30;99.90;;;;;;5056295;28;20510;-58
2023/08/02 09:25:23;;;;;;;1.10;0.40;;;18.40;99.90;;;;;;5069388;28;20514;-58
2023/08/02 09:27:51;;;;;;;0.90;0.50;;;18.40;99.90;;;;;;5069752;28;20515;-58
2023/08/02 09:30:28;;;;;;;0.90;0.50;;;18.50;99.90;;;;;;5059460;28;20411;-58
2023/08/02 09:33:05;;;;;;;1.48;0.50;;;18.40;99.90;;;;;;5068212;28;20439;-59
2023/08/02 09:35:49;;;;;;;0.80;0.50;;;18.60;99.90;;;;;;5067594;28;20937;-59
2023/08/02 09:38:16;;;;;;;1.10;0.60;;;18.70;99.90;;;;;;5073337;28;20463;-60
2023/08/02 09:40:47;;;;;;;1.40;0.60;;;18.70;99.90;;;;;;5072433;28;20932;-60
2023/08/02 09:43:15;;;;;;;0.98;0.55;;;18.80;99.90;;;;;;5072835;28;20720;-60
2023/08/02 09:45:43;;;;;;;1.75;1.30;;;18.90;99.90;;;;;;5069851;28;20720;-61
2023/08/02 09:48:10;;;;;;;0.98;0.60;;;18.90;99.90;;;;;;5070771;28;20431;-61
2023/08/02 09:50:53;;;;;;;1.10;0.70;;;19.00;99.90;;;;;;5071312;28;20428;-61
2023/08/02 09:53:22;;;;;;;1.00;0.60;;;19.00;99.90;;;;;;5053864;28;20420;-60
2023/08/02 09:55:52;;;;;;;0.80;0.60;;;19.10;99.90;;;;;;5068462;28;20431;-60
2023/08/02 09:58:22;;;;;;;1.10;0.70;;;19.20;99.90;;;;;;5066216;28;20547;-61
2023/08/02 10:00:52;;;;;;;0.90;0.50;;;19.20;99.90;;;;;;5066612;28;20746;-61
2023/08/02 10:03:22;;;;;;;1.08;0.60;;;19.20;99.90;;;;;;5070503;28;20431;-62
2023/08/02 10:05:50;;;;;;;2.30;0.70;;;19.30;99.90;;;;;;5060563;28;20435;-63
2023/08/02 10:08:18;;;;;;;0.90;0.60;;;19.40;99.90;;;;;;5069335;28;20534;-60
2023/08/02 10:10:46;;;;;;;0.90;0.60;;;19.50;99.90;;;;;;5064476;28;20528;-61
2023/08/02 10:13:18;;;;;;;1.05;0.60;;;19.60;99.90;;;;;;5064821;28;20862;-60
2023/08/02 10:15:48;;;;;;;1.70;0.70;;;19.70;99.90;;;;;;5071785;28;20515;-59
2023/08/02 10:18:16;;;;;;;1.38;0.60;;;20.10;99.90;;;;;;5074094;28;20450;-61
2023/08/02 10:20:47;;;;;;;1.30;0.65;;;20.10;99.90;;;;;;5070914;28;20785;-61
2023/08/02 10:23:15;;;;;;;1.30;0.80;;;20.20;99.90;;;;;;5059475;28;20820;-59
2023/08/02 10:25:43;;;;;;;1.10;0.70;;;20.10;99.90;;;;;;5073186;28;20504;-59
2023/08/02 10:28:12;;;;;;;2.80;1.20;;;20.00;99.90;;;;;;5061126;28;20417;-59
2023/08/02 10:30:41;;;;;;;2.20;0.80;;;20.00;99.90;;;;;;5052813;28;20475;-58
2023/08/02 10:33:12;;;;;;;2.10;0.95;;;20.10;99.90;;;;;;5064272;28;20843;-60
2023/08/02 10:36:05;;;;;;;1.40;0.77;;;20.00;99.90;;;;;;5073256;28;20459;-59
2023/08/02 10:38:54;;;;;;;1.42;0.70;;;20.20;99.90;;;;;;5058227;28;20483;-59
2023/08/02 10:41:22;;;;;;;1.35;0.70;;;20.10;99.90;;;;;;5074015;28;20442;-60
2023/08/02 10:44:11;;;;;;;1.20;0.60;;;20.00;99.90;;;;;;5072917;28;20527;-61
2023/08/02 10:46:38;;;;;;;1.73;0.70;;;20.00;99.90;;;;;;5065128;28;20723;-61
2023/08/02 10:49:41;;;;;;;1.40;0.80;;;19.90;99.90;;;;;;5069796;28;20538;-61
2023/08/02 10:52:29;;;;;;;1.40;0.80;;;19.70;99.90;;;;;;5072576;28;20948;-61
2023/08/02 10:55:14;;;;;;;1.70;0.77;;;19.50;99.90;;;;;;5072890;28;20473;-61
2023/08/02 10:57:58;;;;;;;1.40;0.73;;;19.50;99.90;;;;;;5070594;28;20907;-62
2023/08/02 11:00:29;;;;;;;1.70;0.70;;;19.80;99.90;;;;;;5057248;28;20948;-62
2023/08/02 11:02:56;;;;;;;1.20;0.90;;;20.00;99.90;;;;;;5067762;28;20510;-62
2023/08/02 11:05:41;;;;;;;2.58;0.90;;;20.10;99.90;;;;;;5073299;28;20442;-62
2023/08/02 11:08:10;;;;;;;1.17;0.77;;;20.30;99.90;;;;;;5069763;28;20799;-63
2023/08/02 11:10:49;;;;;;;1.10;0.70;;;20.40;99.90;;;;;;5067681;28;20431;-63
2023/08/02 11:13:16;;;;;;;1.35;0.70;;;20.50;99.90;;;;;;5071284;28;20526;-63
2023/08/02 11:15:43;;;;;;;1.40;0.80;;;20.50;99.90;;;;;;5071382;28;20519;-63
2023/08/02 11:18:10;;;;;;;1.27;0.70;;;20.60;99.90;;;;;;5073322;28;20506;-63
2023/08/02 11:20:38;;;;;;;1.00;0.70;;;20.60;99.90;;;;;;5072026;28;20611;-63
2023/08/02 11:23:23;;;;;;;1.17;0.75;;;20.70;99.90;;;;;;5067230;28;20435;-63
2023/08/02 11:25:52;;;;;;;1.58;0.90;;;20.70;99.90;;;;;;5071295;28;20496;-62
2023/08/02 11:28:19;;;;;;;1.10;0.70;;;20.80;99.90;;;;;;5071314;28;20902;-63
2023/08/02 11:30:52;;;;;;;1.90;0.90;;;21.10;99.90;;;;;;5071582;28;20416;-62
2023/08/02 11:33:21;;;;;;;1.30;0.70;;;21.30;99.90;;;;;;5065608;28;20438;-63
2023/08/02 11:35:52;;;;;;;1.10;0.70;;;21.50;99.90;;;;;;5070350;28;20518;-62
2023/08/02 11:38:21;;;;;;;1.60;1.00;;;21.80;99.90;;;;;;5071799;28;20420;-63
2023/08/02 11:40:50;;;;;;;1.20;0.60;;;22.10;99.90;;;;;;5069859;28;20449;-63
2023/08/02 11:43:33;;;;;;;1.10;0.70;;;22.50;42.40;;;;;;5065667;28;20514;-62
2023/08/02 11:45:59;;;;;;;1.60;0.70;;;22.70;52.30;;;;;;5067046;28;20440;-61
2023/08/02 11:48:26;;;;;;;1.67;0.80;;;23.30;11.00;;;;;;5067218;28;20881;-60
2023/08/02 11:50:55;;;;;;;1.30;0.70;;;24.00;12.70;;;;;;5055341;28;20721;-62
2023/08/02 11:53:21;;;;;;;1.10;0.70;;;24.30;1.00;;;;;;5056169;28;20530;-62
2023/08/02 11:55:48;;;;;;;1.40;0.70;;;24.60;1.00;;;;;;5066151;28;20538;-62
2023/08/02 11:58:16;;;;;;;1.20;0.70;;;24.90;1.00;;;;;;5061844;28;20493;-62
2023/08/02 12:00:45;;;;;;;1.67;0.70;;;24.90;1.00;;;;;;5065605;28;20518;-63
2023/08/02 12:03:15;;;;;;;1.02;0.60;;;25.00;1.00;;;;;;5063502;28;20514;-63
2023/08/02 12:05:43;;;;;;;1.10;0.60;;;25.10;1.00;;;;;;5068635;28;20442;-63
2023/08/02 12:08:14;;;;;;;1.00;0.70;;;25.00;1.00;;;;;;5066907;28;20820;-63
2023/08/02 12:10:42;;;;;;;1.10;0.80;;;24.70;1.00;;;;;;5066177;28;20580;-62
2023/08/02 12:13:12;;;;;;;0.90;0.70;;;24.40;1.00;;;;;;5063240;28;20428;-63
2023/08/02 12:15:39;;;;;;;1.50;0.98;;;24.40;1.00;;;;;;5066856;28;20447;-63
2023/08/02 12:18:08;;;;;;;2.08;0.80;;;24.60;1.00;;;;;;5058232;28;20434;-62
2023/08/02 12:20:37;;;;;;;1.00;0.60;;;25.00;1.00;;;;;;5065172;28;20564;-63
2023/08/02 12:23:04;;;;;;;1.25;0.70;;;25.20;1.00;;;;;;5063659;28;20439;-61
2023/08/02 12:25:48;;;;;;;1.20;0.60;;;25.40;1.00;;;;;;5067516;28;20881;-61
2023/08/02 12:28:15;;;;;;;0.90;0.60;;;25.90;99.90;;;;;;5063843;28;20518;-62
2023/08/02 12:30:41;;;;;;;1.20;0.70;;;26.10;1.00;;;;;;5070641;28;20937;-60
2023/08/02 12:33:13;;;;;;;1.20;0.70;;;26.50;99.90;;;;;;5068176;28;20962;-60
2023/08/02 12:35:46;;;;;;;0.90;0.50;;;26.90;1.00;;;;;;5067979;28;20851;-60
2023/08/02 12:38:12;;;;;;;1.30;0.50;;;27.50;99.90;;;;;;5053905;28;20899;-59
2023/08/02 12:40:39;;;;;;;0.70;0.50;;;27.60;99.90;;;;;;5057782;28;20528;-60
2023/08/02 12:43:08;;;;;;;0.90;0.60;;;27.70;99.90;;;;;;5051971;28;21020;-60
2023/08/02 12:45:35;;;;;;;1.00;0.50;;;27.30;25.20;;;;;;5069627;28;20467;-61
2023/08/02 12:48:02;;;;;;;1.67;0.50;;;26.60;1.00;;;;;;5070338;28;20702;-61
2023/08/02 12:50:30;;;;;;;0.70;0.50;;;26.00;1.00;;;;;;5068237;28;20522;-61
2023/08/02 12:52:57;;;;;;;1.00;0.60;;;25.70;99.90;;;;;;5069105;28;20431;-61
2023/08/02 12:55:24;;;;;;;1.30;0.50;;;25.40;1.00;;;;;;5067064;28;20517;-61
2023/08/02 12:57:53;;;;;;;0.70;0.50;;;25.30;1.00;;;;;;5067524;28;20427;-60